sensor_id;sensor_type;location;lat;lon;timestamp;P1;durP1;ratioP1;P2;durP2;ratioP2
55220;SDS011;41089;51.448;6.604;2022-08-19T00:05:55;10.35;;;9.35;;
55220;SDS011;41089;51.448;6.604;2022-08-19T00:11:56;10.30;;;9.37;;
55220;SDS011;41089;51.448;6.604;2022-08-19T00:17:57;11.18;;;9.80;;
55220;SDS011;41089;51.448;6.604;2022-08-19T00:23:58;10.45;;;9.45;;
55220;SDS011;41089;51.448;6.604;2022-08-19T00:29:59;10.60;;;9.68;;
55220;SDS011;41089;51.448;6.604;2022-08-19T00:36:03;10.93;;;9.82;;
55220;SDS011;41089;51.448;6.604;2022-08-19T00:42:06;13.98;;;12.65;;
55220;SDS011;41089;51.448;6.604;2022-08-19T00:48:06;12.55;;;11.25;;
55220;SDS011;41089;51.448;6.604;2022-08-19T00:54:07;14.05;;;12.73;;
55220;SDS011;41089;51.448;6.604;2022-08-19T01:00:10;13.18;;;11.98;;
55220;SDS011;41089;51.448;6.604;2022-08-19T01:06:13;12.65;;;11.55;;
55220;SDS011;41089;51.448;6.604;2022-08-19T01:12:14;11.68;;;10.57;;
55220;SDS011;41089;51.448;6.604;2022-08-19T01:18:16;11.98;;;10.32;;
55220;SDS011;41089;51.448;6.604;2022-08-19T01:24:18;11.80;;;10.75;;
55220;SDS011;41089;51.448;6.604;2022-08-19T01:30:27;12.87;;;10.17;;
55220;SDS011;41089;51.448;6.604;2022-08-19T01:42:35;12.77;;;10.18;;
55220;SDS011;41089;51.448;6.604;2022-08-19T01:48:37;11.90;;;10.70;;
55220;SDS011;41089;51.448;6.604;2022-08-19T01:54:40;14.23;;;12.82;;
55220;SDS011;41089;51.448;6.604;2022-08-19T02:00:40;14.85;;;13.45;;
55220;SDS011;41089;51.448;6.604;2022-08-19T02:06:41;12.65;;;10.90;;
55220;SDS011;41089;51.448;6.604;2022-08-19T02:12:41;15.75;;;14.13;;
55220;SDS011;41089;51.448;6.604;2022-08-19T02:18:42;13.52;;;12.13;;
55220;SDS011;41089;51.448;6.604;2022-08-19T02:24:42;16.80;;;15.10;;
55220;SDS011;41089;51.448;6.604;2022-08-19T02:30:43;15.87;;;14.47;;
55220;SDS011;41089;51.448;6.604;2022-08-19T02:36:43;14.13;;;12.82;;
55220;SDS011;41089;51.448;6.604;2022-08-19T02:42:44;16.42;;;14.93;;
55220;SDS011;41089;51.448;6.604;2022-08-19T02:48:45;20.23;;;18.15;;
55220;SDS011;41089;51.448;6.604;2022-08-19T02:54:47;24.38;;;22.08;;
55220;SDS011;41089;51.448;6.604;2022-08-19T03:00:49;19.33;;;17.40;;
55220;SDS011;41089;51.448;6.604;2022-08-19T03:06:51;20.70;;;18.63;;
55220;SDS011;41089;51.448;6.604;2022-08-19T03:12:51;19.10;;;17.05;;
55220;SDS011;41089;51.448;6.604;2022-08-19T03:18:52;23.00;;;20.87;;
55220;SDS011;41089;51.448;6.604;2022-08-19T03:24:53;24.77;;;22.27;;
55220;SDS011;41089;51.448;6.604;2022-08-19T03:30:58;23.40;;;21.03;;
55220;SDS011;41089;51.448;6.604;2022-08-19T03:37:07;32.20;;;28.80;;
55220;SDS011;41089;51.448;6.604;2022-08-19T03:43:10;28.35;;;25.55;;
55220;SDS011;41089;51.448;6.604;2022-08-19T03:49:10;32.47;;;29.43;;
55220;SDS011;41089;51.448;6.604;2022-08-19T03:55:11;28.60;;;25.90;;
55220;SDS011;41089;51.448;6.604;2022-08-19T04:01:12;32.60;;;29.47;;
55220;SDS011;41089;51.448;6.604;2022-08-19T04:07:14;33.38;;;29.90;;
55220;SDS011;41089;51.448;6.604;2022-08-19T04:13:16;40.30;;;35.90;;
55220;SDS011;41089;51.448;6.604;2022-08-19T04:19:18;35.00;;;31.80;;
55220;SDS011;41089;51.448;6.604;2022-08-19T04:25:19;38.97;;;34.97;;
55220;SDS011;41089;51.448;6.604;2022-08-19T04:31:23;38.57;;;34.60;;
55220;SDS011;41089;51.448;6.604;2022-08-19T04:37:28;41.00;;;36.63;;
55220;SDS011;41089;51.448;6.604;2022-08-19T04:43:33;43.05;;;38.40;;
55220;SDS011;41089;51.448;6.604;2022-08-19T04:49:35;36.75;;;33.20;;
55220;SDS011;41089;51.448;6.604;2022-08-19T04:55:38;33.70;;;30.42;;
55220;SDS011;41089;51.448;6.604;2022-08-19T05:01:42;35.45;;;31.85;;
55220;SDS011;41089;51.448;6.604;2022-08-19T05:07:43;47.95;;;42.78;;
55220;SDS011;41089;51.448;6.604;2022-08-19T05:13:44;42.10;;;37.67;;
55220;SDS011;41089;51.448;6.604;2022-08-19T05:19:44;39.30;;;35.60;;
55220;SDS011;41089;51.448;6.604;2022-08-19T05:26:03;41.85;;;37.50;;
55220;SDS011;41089;51.448;6.604;2022-08-19T05:32:05;41.80;;;37.70;;
55220;SDS011;41089;51.448;6.604;2022-08-19T05:38:09;44.67;;;40.25;;
55220;SDS011;41089;51.448;6.604;2022-08-19T05:44:11;42.67;;;38.58;;
55220;SDS011;41089;51.448;6.604;2022-08-19T05:50:11;45.80;;;41.27;;
55220;SDS011;41089;51.448;6.604;2022-08-19T05:56:13;48.55;;;43.50;;
55220;SDS011;41089;51.448;6.604;2022-08-19T06:02:15;42.30;;;38.33;;
55220;SDS011;41089;51.448;6.604;2022-08-19T06:08:16;41.20;;;37.17;;
55220;SDS011;41089;51.448;6.604;2022-08-19T06:14:19;50.65;;;45.58;;
55220;SDS011;41089;51.448;6.604;2022-08-19T06:20:22;47.63;;;43.13;;
55220;SDS011;41089;51.448;6.604;2022-08-19T06:26:23;47.80;;;43.20;;
55220;SDS011;41089;51.448;6.604;2022-08-19T06:32:24;62.40;;;55.92;;
55220;SDS011;41089;51.448;6.604;2022-08-19T06:38:25;51.83;;;44.88;;
55220;SDS011;41089;51.448;6.604;2022-08-19T06:44:26;52.03;;;47.10;;
55220;SDS011;41089;51.448;6.604;2022-08-19T06:50:28;51.95;;;46.65;;
55220;SDS011;41089;51.448;6.604;2022-08-19T06:56:30;51.00;;;45.93;;
55220;SDS011;41089;51.448;6.604;2022-08-19T07:02:33;52.80;;;47.85;;
55220;SDS011;41089;51.448;6.604;2022-08-19T07:08:37;48.42;;;43.45;;
55220;SDS011;41089;51.448;6.604;2022-08-19T07:14:41;41.38;;;36.92;;
55220;SDS011;41089;51.448;6.604;2022-08-19T07:20:43;40.08;;;35.72;;
55220;SDS011;41089;51.448;6.604;2022-08-19T07:26:44;37.22;;;33.30;;
55220;SDS011;41089;51.448;6.604;2022-08-19T07:32:45;33.40;;;29.65;;
55220;SDS011;41089;51.448;6.604;2022-08-19T07:38:46;33.50;;;29.90;;
55220;SDS011;41089;51.448;6.604;2022-08-19T07:44:48;32.35;;;29.15;;
55220;SDS011;41089;51.448;6.604;2022-08-19T07:50:48;33.80;;;29.23;;
55220;SDS011;41089;51.448;6.604;2022-08-19T07:56:49;40.05;;;34.80;;
55220;SDS011;41089;51.448;6.604;2022-08-19T08:02:52;40.22;;;35.88;;
55220;SDS011;41089;51.448;6.604;2022-08-19T08:08:53;41.65;;;35.88;;
55220;SDS011;41089;51.448;6.604;2022-08-19T08:15:13;44.38;;;36.38;;
55220;SDS011;41089;51.448;6.604;2022-08-19T08:21:16;42.70;;;37.95;;
55220;SDS011;41089;51.448;6.604;2022-08-19T08:27:16;37.47;;;33.58;;
55220;SDS011;41089;51.448;6.604;2022-08-19T08:33:19;44.30;;;39.22;;
55220;SDS011;41089;51.448;6.604;2022-08-19T08:39:23;40.85;;;36.35;;
55220;SDS011;41089;51.448;6.604;2022-08-19T08:45:23;37.30;;;33.30;;
55220;SDS011;41089;51.448;6.604;2022-08-19T08:51:44;35.15;;;31.35;;
55220;SDS011;41089;51.448;6.604;2022-08-19T09:03:54;24.65;;;22.05;;
55220;SDS011;41089;51.448;6.604;2022-08-19T09:09:57;29.10;;;25.98;;
55220;SDS011;41089;51.448;6.604;2022-08-19T09:16:12;30.48;;;26.38;;
55220;SDS011;41089;51.448;6.604;2022-08-19T09:22:14;28.10;;;25.30;;
55220;SDS011;41089;51.448;6.604;2022-08-19T09:28:15;25.23;;;22.48;;
55220;SDS011;41089;51.448;6.604;2022-08-19T09:34:16;24.42;;;21.92;;
55220;SDS011;41089;51.448;6.604;2022-08-19T09:40:18;26.63;;;23.98;;
55220;SDS011;41089;51.448;6.604;2022-08-19T09:46:19;27.63;;;24.73;;
55220;SDS011;41089;51.448;6.604;2022-08-19T09:52:21;25.98;;;23.33;;
55220;SDS011;41089;51.448;6.604;2022-08-19T09:58:21;21.90;;;19.83;;
55220;SDS011;41089;51.448;6.604;2022-08-19T10:04:26;21.90;;;19.55;;
55220;SDS011;41089;51.448;6.604;2022-08-19T10:10:47;21.55;;;19.25;;
55220;SDS011;41089;51.448;6.604;2022-08-19T10:16:49;17.80;;;16.08;;
55220;SDS011;41089;51.448;6.604;2022-08-19T10:22:50;18.05;;;15.57;;
55220;SDS011;41089;51.448;6.604;2022-08-19T10:28:51;15.10;;;13.17;;
55220;SDS011;41089;51.448;6.604;2022-08-19T10:34:53;18.08;;;16.30;;
55220;SDS011;41089;51.448;6.604;2022-08-19T10:40:54;19.25;;;15.25;;
55220;SDS011;41089;51.448;6.604;2022-08-19T10:46:55;13.60;;;12.20;;
55220;SDS011;41089;51.448;6.604;2022-08-19T10:52:55;13.05;;;11.65;;
55220;SDS011;41089;51.448;6.604;2022-08-19T10:58:56;17.00;;;15.32;;
55220;SDS011;41089;51.448;6.604;2022-08-19T11:04:58;16.10;;;13.75;;
55220;SDS011;41089;51.448;6.604;2022-08-19T11:10:59;14.23;;;12.33;;
55220;SDS011;41089;51.448;6.604;2022-08-19T11:17:01;12.30;;;10.85;;
55220;SDS011;41089;51.448;6.604;2022-08-19T11:23:03;11.63;;;10.52;;
55220;SDS011;41089;51.448;6.604;2022-08-19T11:29:05;12.82;;;10.05;;
55220;SDS011;41089;51.448;6.604;2022-08-19T11:35:06;11.10;;;9.98;;
55220;SDS011;41089;51.448;6.604;2022-08-19T11:41:07;11.73;;;9.00;;
55220;SDS011;41089;51.448;6.604;2022-08-19T11:47:08;11.00;;;9.13;;
55220;SDS011;41089;51.448;6.604;2022-08-19T11:53:08;8.32;;;7.47;;
55220;SDS011;41089;51.448;6.604;2022-08-19T11:59:11;10.68;;;6.75;;
55220;SDS011;41089;51.448;6.604;2022-08-19T12:05:12;9.57;;;6.93;;
55220;SDS011;41089;51.448;6.604;2022-08-19T12:11:13;6.63;;;5.15;;
55220;SDS011;41089;51.448;6.604;2022-08-19T12:17:14;5.75;;;5.13;;
55220;SDS011;41089;51.448;6.604;2022-08-19T12:23:15;6.80;;;4.60;;
55220;SDS011;41089;51.448;6.604;2022-08-19T12:29:15;5.10;;;4.57;;
55220;SDS011;41089;51.448;6.604;2022-08-19T12:35:16;7.60;;;5.73;;
55220;SDS011;41089;51.448;6.604;2022-08-19T12:41:20;6.07;;;5.28;;
55220;SDS011;41089;51.448;6.604;2022-08-19T12:47:22;6.18;;;5.53;;
55220;SDS011;41089;51.448;6.604;2022-08-19T12:53:22;6.75;;;4.78;;
55220;SDS011;41089;51.448;6.604;2022-08-19T12:59:23;7.88;;;6.03;;
55220;SDS011;41089;51.448;6.604;2022-08-19T13:05:25;5.33;;;4.80;;
55220;SDS011;41089;51.448;6.604;2022-08-19T13:11:30;6.47;;;5.88;;
55220;SDS011;41089;51.448;6.604;2022-08-19T13:17:34;7.95;;;5.70;;
55220;SDS011;41089;51.448;6.604;2022-08-19T13:23:35;10.18;;;6.03;;
55220;SDS011;41089;51.448;6.604;2022-08-19T13:29:36;9.43;;;5.68;;
55220;SDS011;41089;51.448;6.604;2022-08-19T13:42:00;11.38;;;8.38;;
55220;SDS011;41089;51.448;6.604;2022-08-19T13:48:02;10.55;;;7.22;;
55220;SDS011;41089;51.448;6.604;2022-08-19T13:54:08;9.60;;;7.55;;
55220;SDS011;41089;51.448;6.604;2022-08-19T14:00:12;8.20;;;5.60;;
55220;SDS011;41089;51.448;6.604;2022-08-19T14:06:14;6.75;;;5.00;;
55220;SDS011;41089;51.448;6.604;2022-08-19T14:12:20;7.75;;;5.18;;
55220;SDS011;41089;51.448;6.604;2022-08-19T14:18:21;7.28;;;5.03;;
55220;SDS011;41089;51.448;6.604;2022-08-19T14:24:21;6.88;;;4.95;;
55220;SDS011;41089;51.448;6.604;2022-08-19T14:30:24;6.13;;;4.75;;
55220;SDS011;41089;51.448;6.604;2022-08-19T14:36:29;7.70;;;6.03;;
55220;SDS011;41089;51.448;6.604;2022-08-19T14:42:31;6.88;;;6.20;;
55220;SDS011;41089;51.448;6.604;2022-08-19T14:48:37;7.10;;;6.32;;
55220;SDS011;41089;51.448;6.604;2022-08-19T14:54:39;9.38;;;4.72;;
55220;SDS011;41089;51.448;6.604;2022-08-19T15:00:39;8.45;;;5.50;;
55220;SDS011;41089;51.448;6.604;2022-08-19T15:06:40;10.05;;;7.68;;
55220;SDS011;41089;51.448;6.604;2022-08-19T15:12:42;8.68;;;7.30;;
55220;SDS011;41089;51.448;6.604;2022-08-19T15:18:43;8.70;;;7.80;;
55220;SDS011;41089;51.448;6.604;2022-08-19T15:24:44;13.20;;;10.07;;
55220;SDS011;41089;51.448;6.604;2022-08-19T15:30:46;11.23;;;9.75;;
55220;SDS011;41089;51.448;6.604;2022-08-19T15:36:46;11.70;;;10.50;;
55220;SDS011;41089;51.448;6.604;2022-08-19T15:42:47;11.05;;;9.93;;
55220;SDS011;41089;51.448;6.604;2022-08-19T15:48:49;12.55;;;10.05;;
55220;SDS011;41089;51.448;6.604;2022-08-19T15:54:50;15.50;;;12.07;;
55220;SDS011;41089;51.448;6.604;2022-08-19T16:00:50;12.30;;;11.00;;
55220;SDS011;41089;51.448;6.604;2022-08-19T16:13:11;12.35;;;10.80;;
55220;SDS011;41089;51.448;6.604;2022-08-19T16:19:13;12.25;;;11.07;;
55220;SDS011;41089;51.448;6.604;2022-08-19T16:25:16;11.68;;;10.48;;
55220;SDS011;41089;51.448;6.604;2022-08-19T16:31:16;12.35;;;10.43;;
55220;SDS011;41089;51.448;6.604;2022-08-19T16:37:20;13.00;;;10.73;;
55220;SDS011;41089;51.448;6.604;2022-08-19T16:43:23;12.68;;;11.27;;
55220;SDS011;41089;51.448;6.604;2022-08-19T16:49:26;13.40;;;11.45;;
55220;SDS011;41089;51.448;6.604;2022-08-19T16:55:27;13.07;;;11.70;;
55220;SDS011;41089;51.448;6.604;2022-08-19T17:01:28;12.18;;;10.98;;
55220;SDS011;41089;51.448;6.604;2022-08-19T17:07:29;12.90;;;11.30;;
55220;SDS011;41089;51.448;6.604;2022-08-19T17:13:30;14.48;;;11.57;;
55220;SDS011;41089;51.448;6.604;2022-08-19T17:19:30;15.25;;;12.60;;
55220;SDS011;41089;51.448;6.604;2022-08-19T17:25:31;13.32;;;11.70;;
55220;SDS011;41089;51.448;6.604;2022-08-19T17:31:32;14.15;;;12.60;;
55220;SDS011;41089;51.448;6.604;2022-08-19T17:37:34;13.20;;;11.82;;
55220;SDS011;41089;51.448;6.604;2022-08-19T17:43:35;11.57;;;10.30;;
55220;SDS011;41089;51.448;6.604;2022-08-19T17:49:35;11.95;;;10.50;;
55220;SDS011;41089;51.448;6.604;2022-08-19T17:55:36;8.77;;;8.02;;
55220;SDS011;41089;51.448;6.604;2022-08-19T18:01:37;8.10;;;6.50;;
55220;SDS011;41089;51.448;6.604;2022-08-19T18:07:38;6.22;;;5.57;;
55220;SDS011;41089;51.448;6.604;2022-08-19T18:13:39;7.18;;;6.45;;
55220;SDS011;41089;51.448;6.604;2022-08-19T18:19:40;7.43;;;6.72;;
55220;SDS011;41089;51.448;6.604;2022-08-19T18:25:41;8.00;;;7.15;;
55220;SDS011;41089;51.448;6.604;2022-08-19T18:31:42;7.95;;;7.25;;
55220;SDS011;41089;51.448;6.604;2022-08-19T18:37:43;8.43;;;7.55;;
55220;SDS011;41089;51.448;6.604;2022-08-19T18:43:44;8.93;;;6.57;;
55220;SDS011;41089;51.448;6.604;2022-08-19T18:50:03;7.60;;;6.90;;
55220;SDS011;41089;51.448;6.604;2022-08-19T18:56:08;7.40;;;6.65;;
55220;SDS011;41089;51.448;6.604;2022-08-19T19:02:12;7.82;;;7.03;;
55220;SDS011;41089;51.448;6.604;2022-08-19T19:08:14;9.35;;;6.72;;
55220;SDS011;41089;51.448;6.604;2022-08-19T19:14:18;9.75;;;8.80;;
55220;SDS011;41089;51.448;6.604;2022-08-19T19:20:23;8.35;;;7.55;;
55220;SDS011;41089;51.448;6.604;2022-08-19T19:26:33;8.57;;;7.65;;
55220;SDS011;41089;51.448;6.604;2022-08-19T19:32:38;10.68;;;8.50;;
55220;SDS011;41089;51.448;6.604;2022-08-19T19:38:40;9.52;;;8.63;;
55220;SDS011;41089;51.448;6.604;2022-08-19T19:44:44;11.27;;;8.95;;
55220;SDS011;41089;51.448;6.604;2022-08-19T19:50:47;9.27;;;8.40;;
55220;SDS011;41089;51.448;6.604;2022-08-19T19:56:47;12.45;;;8.63;;
55220;SDS011;41089;51.448;6.604;2022-08-19T20:02:51;11.85;;;9.68;;
55220;SDS011;41089;51.448;6.604;2022-08-19T20:08:55;13.40;;;10.00;;
55220;SDS011;41089;51.448;6.604;2022-08-19T20:15:09;12.55;;;11.25;;
55220;SDS011;41089;51.448;6.604;2022-08-19T20:21:09;12.48;;;11.27;;
55220;SDS011;41089;51.448;6.604;2022-08-19T20:27:11;14.18;;;12.00;;
55220;SDS011;41089;51.448;6.604;2022-08-19T20:33:13;15.23;;;13.65;;
55220;SDS011;41089;51.448;6.604;2022-08-19T20:39:13;15.20;;;13.45;;
55220;SDS011;41089;51.448;6.604;2022-08-19T20:45:15;17.05;;;13.85;;
55220;SDS011;41089;51.448;6.604;2022-08-19T20:51:16;13.55;;;12.15;;
55220;SDS011;41089;51.448;6.604;2022-08-19T20:57:17;16.13;;;13.02;;
55220;SDS011;41089;51.448;6.604;2022-08-19T21:03:18;19.38;;;15.63;;
55220;SDS011;41089;51.448;6.604;2022-08-19T21:09:20;15.40;;;13.48;;
55220;SDS011;41089;51.448;6.604;2022-08-19T21:15:21;19.47;;;16.17;;
55220;SDS011;41089;51.448;6.604;2022-08-19T21:21:23;20.33;;;18.10;;
55220;SDS011;41089;51.448;6.604;2022-08-19T21:27:23;19.10;;;16.50;;
55220;SDS011;41089;51.448;6.604;2022-08-19T21:33:24;21.60;;;17.83;;
55220;SDS011;41089;51.448;6.604;2022-08-19T21:39:25;26.65;;;21.40;;
55220;SDS011;41089;51.448;6.604;2022-08-19T21:45:25;24.10;;;18.50;;
55220;SDS011;41089;51.448;6.604;2022-08-19T21:51:26;24.47;;;20.63;;
55220;SDS011;41089;51.448;6.604;2022-08-19T21:57:26;20.80;;;17.63;;
55220;SDS011;41089;51.448;6.604;2022-08-19T22:03:27;14.20;;;12.57;;
55220;SDS011;41089;51.448;6.604;2022-08-19T22:09:28;9.52;;;8.25;;
55220;SDS011;41089;51.448;6.604;2022-08-19T22:15:28;10.13;;;8.77;;
55220;SDS011;41089;51.448;6.604;2022-08-19T22:21:29;10.48;;;9.48;;
55220;SDS011;41089;51.448;6.604;2022-08-19T22:27:30;15.85;;;12.40;;
55220;SDS011;41089;51.448;6.604;2022-08-19T22:33:31;17.77;;;13.65;;
55220;SDS011;41089;51.448;6.604;2022-08-19T22:39:32;14.35;;;12.85;;
55220;SDS011;41089;51.448;6.604;2022-08-19T22:45:32;15.82;;;14.15;;
55220;SDS011;41089;51.448;6.604;2022-08-19T22:51:35;20.13;;;14.80;;
55220;SDS011;41089;51.448;6.604;2022-08-19T22:57:54;17.47;;;15.43;;
55220;SDS011;41089;51.448;6.604;2022-08-19T23:03:55;18.00;;;16.05;;
55220;SDS011;41089;51.448;6.604;2022-08-19T23:09:55;15.80;;;14.10;;
55220;SDS011;41089;51.448;6.604;2022-08-19T23:15:56;17.57;;;15.33;;
55220;SDS011;41089;51.448;6.604;2022-08-19T23:21:58;17.67;;;14.20;;
55220;SDS011;41089;51.448;6.604;2022-08-19T23:27:59;14.73;;;13.18;;
55220;SDS011;41089;51.448;6.604;2022-08-19T23:46:20;15.07;;;13.45;;
55220;SDS011;41089;51.448;6.604;2022-08-19T23:52:21;14.70;;;13.10;;
55220;SDS011;41089;51.448;6.604;2022-08-19T23:58:22;17.90;;;14.13;;
